Time;durP1;ratioP1;P1;durP2;ratioP2;P2;SDS_P1;SDS_P2;PMS_P1;PMS_P2;Temp;Humidity;BMP_temperature;BMP_pressure;BME280_temperature;BME280_humidity;BME280_pressure;Samples;Min_cycle;Max_cycle;Signal;HPM_P1;HPM_P2
2023/12/24 00:01:44;;;;;;;5.53;1.88;;;9.40;99.90;;;;;;4995376;28;20045;-89
2023/12/24 00:04:10;;;;;;;3.90;1.33;;;9.40;99.90;;;;;;5007862;28;20500;-89
2023/12/24 00:06:36;;;;;;;7.10;1.48;;;9.50;99.90;;;;;;4994698;28;20025;-89
2023/12/24 00:09:02;;;;;;;8.13;2.25;;;9.40;99.90;;;;;;5010590;28;20111;-89
2023/12/24 00:11:27;;;;;;;7.97;1.90;;;9.40;99.90;;;;;;5010496;28;20378;-89
2023/12/24 00:13:53;;;;;;;7.00;1.58;;;9.50;99.90;;;;;;4993737;28;20125;-89
2023/12/24 00:16:18;;;;;;;11.68;1.98;;;9.40;99.90;;;;;;5010938;28;20590;-90
2023/12/24 00:18:44;;;;;;;4.05;1.15;;;9.40;99.90;;;;;;5010866;28;20562;-90
2023/12/24 00:21:13;;;;;;;8.95;2.63;;;9.40;99.90;;;;;;4995135;28;20467;-89
2023/12/24 00:23:39;;;;;;;6.80;1.85;;;9.50;99.90;;;;;;5012198;28;20408;-91
2023/12/24 00:26:04;;;;;;;3.83;0.95;;;9.50;99.90;;;;;;5012306;28;20099;-90
2023/12/24 00:28:30;;;;;;;3.90;0.95;;;9.50;99.90;;;;;;5012496;28;20033;-91
2023/12/24 00:30:55;;;;;;;3.47;1.23;;;9.50;99.90;;;;;;5011963;28;20094;-90
2023/12/24 00:33:21;;;;;;;6.13;1.70;;;9.50;99.90;;;;;;5012399;28;20037;-90
2023/12/24 00:35:47;;;;;;;2.85;0.80;;;9.50;99.90;;;;;;4995875;28;20560;-90
2023/12/24 00:38:13;;;;;;;6.28;1.50;;;9.50;99.90;;;;;;4996052;28;20409;-90
2023/12/24 00:40:39;;;;;;;6.60;1.65;;;9.50;99.90;;;;;;4995532;28;20542;-90
2023/12/24 00:43:05;;;;;;;4.03;0.90;;;9.50;99.90;;;;;;4994972;28;20578;-90
2023/12/24 00:45:31;;;;;;;4.20;1.15;;;9.50;99.90;;;;;;4995446;28;20069;-90
2023/12/24 00:47:57;;;;;;;8.88;1.65;;;9.50;99.90;;;;;;5011992;28;20042;-90
2023/12/24 00:50:23;;;;;;;3.95;1.33;;;9.50;99.90;;;;;;4995851;28;20208;-90
2023/12/24 00:52:50;;;;;;;44.15;2.20;;;9.50;99.90;;;;;;5010982;28;20077;-90
2023/12/24 00:55:15;;;;;;;5.72;1.20;;;9.50;99.90;;;;;;4995311;28;20072;-91
2023/12/24 00:57:41;;;;;;;5.45;1.42;;;9.50;99.90;;;;;;4994791;28;20416;-90
2023/12/24 01:00:07;;;;;;;5.65;1.25;;;9.50;99.90;;;;;;5011482;28;20044;-90
2023/12/24 01:02:33;;;;;;;4.38;1.23;;;9.50;99.90;;;;;;4995489;28;20037;-89
2023/12/24 01:04:58;;;;;;;3.92;1.08;;;9.50;99.90;;;;;;4995268;28;20046;-90
2023/12/24 01:07:24;;;;;;;2.92;1.02;;;9.50;99.90;;;;;;4995628;28;20072;-89
2023/12/24 01:09:50;;;;;;;5.13;1.40;;;9.50;99.90;;;;;;4998918;28;20060;-89
2023/12/24 01:12:16;;;;;;;8.32;1.52;;;9.50;99.90;;;;;;5015417;28;20200;-89
2023/12/24 01:14:42;;;;;;;4.47;0.90;;;9.50;99.90;;;;;;4999347;28;20044;-86
2023/12/24 01:17:07;;;;;;;3.25;1.13;;;9.50;99.90;;;;;;4999644;28;20045;-88
2023/12/24 01:19:33;;;;;;;4.47;1.45;;;9.50;99.90;;;;;;4999592;28;20038;-88
2023/12/24 01:21:59;;;;;;;2.17;0.73;;;9.50;99.90;;;;;;5015894;28;20110;-89
2023/12/24 01:24:25;;;;;;;3.33;0.90;;;9.50;99.90;;;;;;5015400;28;20037;-89
2023/12/24 01:26:50;;;;;;;5.50;0.98;;;9.50;99.90;;;;;;4999511;28;20037;-88
2023/12/24 01:29:16;;;;;;;7.88;2.55;;;9.50;99.90;;;;;;5033827;28;20044;-89
2023/12/24 01:31:42;;;;;;;3.78;1.23;;;9.50;99.90;;;;;;5033047;28;20109;-90
2023/12/24 01:34:08;;;;;;;2.80;0.77;;;9.50;99.90;;;;;;5015173;28;20084;-90
2023/12/24 01:36:37;;;;;;;4.32;1.23;;;9.50;99.90;;;;;;4998796;28;20138;-89
2023/12/24 01:39:02;;;;;;;5.25;1.10;;;9.60;99.90;;;;;;5015385;28;20056;-89
2023/12/24 01:41:28;;;;;;;3.08;0.90;;;9.50;99.90;;;;;;4998620;28;20041;-90
2023/12/24 01:43:54;;;;;;;4.03;1.38;;;9.60;99.90;;;;;;5014069;28;20534;-90
2023/12/24 01:46:21;;;;;;;7.43;1.65;;;9.60;99.90;;;;;;5014932;28;20033;-89
2023/12/24 01:48:50;;;;;;;5.85;0.80;;;9.60;99.90;;;;;;5015184;28;20489;-89
2023/12/24 01:51:18;;;;;;;5.03;1.40;;;9.60;99.90;;;;;;5014959;28;20412;-89
2023/12/24 01:53:44;;;;;;;1.50;0.70;;;9.60;99.90;;;;;;4998112;28;20041;-89
2023/12/24 01:56:10;;;;;;;3.78;1.17;;;9.60;99.90;;;;;;4998402;28;20124;-89
2023/12/24 01:58:37;;;;;;;5.82;1.70;;;9.60;99.90;;;;;;4998366;28;20049;-89
2023/12/24 02:01:03;;;;;;;3.83;1.05;;;9.60;99.90;;;;;;4998384;28;20656;-90
2023/12/24 02:03:28;;;;;;;0.90;0.60;;;9.60;99.90;;;;;;4997872;28;20045;-90
2023/12/24 02:05:56;;;;;;;0.73;0.45;;;9.60;99.90;;;;;;4998102;28;20033;-90
2023/12/24 02:08:21;;;;;;;4.57;1.08;;;9.60;99.90;;;;;;4998079;28;20038;-90
2023/12/24 02:10:50;;;;;;;6.55;2.05;;;9.60;99.90;;;;;;5014506;28;20037;-90
2023/12/24 02:13:17;;;;;;;2.60;0.82;;;9.50;99.90;;;;;;4997285;28;20099;-90
2023/12/24 02:15:45;;;;;;;5.75;1.63;;;9.50;99.90;;;;;;4998095;28;20129;-89
2023/12/24 02:18:11;;;;;;;6.82;1.35;;;9.50;99.90;;;;;;4998115;28;20571;-89
2023/12/24 02:20:37;;;;;;;2.80;0.70;;;9.50;99.90;;;;;;4998358;28;20603;-89
2023/12/24 02:23:03;;;;;;;2.95;0.90;;;9.50;99.90;;;;;;5013927;28;20141;-89
2023/12/24 02:25:30;;;;;;;2.22;0.65;;;9.50;99.90;;;;;;4997797;28;20818;-89
2023/12/24 02:28:06;;;;;;;3.42;0.95;;;9.50;99.90;;;;;;5014400;28;20029;-89
2023/12/24 02:30:42;;;;;;;4.45;0.77;;;9.50;99.90;;;;;;5014643;28;20124;-90
2023/12/24 02:33:10;;;;;;;1.58;0.85;;;9.50;99.90;;;;;;5014134;28;20492;-90
2023/12/24 02:35:38;;;;;;;3.30;1.02;;;9.50;99.90;;;;;;4997744;28;20045;-90
2023/12/24 02:38:03;;;;;;;3.35;1.00;;;9.50;99.90;;;;;;5013753;28;20053;-90
2023/12/24 02:40:29;;;;;;;4.72;1.25;;;9.50;99.90;;;;;;4997911;28;20041;-90
2023/12/24 02:42:55;;;;;;;3.70;1.20;;;9.40;99.90;;;;;;4997359;28;20048;-90
2023/12/24 02:45:20;;;;;;;4.05;1.58;;;9.40;99.90;;;;;;5013990;28;20041;-90
2023/12/24 02:47:46;;;;;;;4.63;1.60;;;9.40;99.90;;;;;;4997709;28;20038;-89
2023/12/24 02:50:12;;;;;;;2.95;1.20;;;9.40;99.90;;;;;;5013682;28;20107;-89
2023/12/24 02:52:37;;;;;;;3.10;1.13;;;9.50;99.90;;;;;;4997137;28;20463;-89
2023/12/24 02:55:03;;;;;;;2.42;0.93;;;9.50;99.90;;;;;;5013835;28;20041;-89
2023/12/24 02:57:29;;;;;;;2.88;0.90;;;9.50;99.90;;;;;;4997707;28;20037;-90
2023/12/24 02:59:55;;;;;;;2.67;0.98;;;9.50;99.90;;;;;;4997073;28;20046;-89
2023/12/24 03:02:20;;;;;;;2.20;0.65;;;9.50;99.90;;;;;;4997464;28;20124;-89
2023/12/24 03:04:46;;;;;;;5.68;0.60;;;9.50;99.90;;;;;;4996494;28;20412;-89
2023/12/24 03:07:12;;;;;;;1.65;0.82;;;9.50;99.90;;;;;;4996847;28;20448;-89
2023/12/24 03:09:38;;;;;;;3.05;1.20;;;9.50;99.90;;;;;;4997646;28;20131;-89
2023/12/24 03:12:05;;;;;;;3.28;1.33;;;9.50;99.90;;;;;;4997299;28;20064;-89
2023/12/24 03:14:30;;;;;;;5.25;1.90;;;9.50;99.90;;;;;;4996355;28;20045;-89
2023/12/24 03:16:56;;;;;;;1.48;0.70;;;9.50;99.90;;;;;;4996927;28;20049;-90
2023/12/24 03:19:22;;;;;;;1.65;0.63;;;9.50;99.90;;;;;;4997393;28;20049;-90
2023/12/24 03:21:47;;;;;;;7.28;1.70;;;9.50;99.90;;;;;;5013340;28;20052;-89
2023/12/24 03:24:13;;;;;;;4.20;0.95;;;9.50;99.90;;;;;;4996496;28;20501;-89
2023/12/24 03:26:38;;;;;;;2.58;1.38;;;9.50;99.90;;;;;;4996966;28;20038;-89
2023/12/24 03:29:05;;;;;;;1.42;0.63;;;9.50;99.90;;;;;;5013297;28;20046;-90
2023/12/24 03:31:30;;;;;;;3.45;0.65;;;9.50;99.90;;;;;;5012660;28;20041;-89
2023/12/24 03:33:56;;;;;;;2.00;0.95;;;9.50;99.90;;;;;;4996244;28;20518;-89
2023/12/24 03:36:22;;;;;;;3.50;1.25;;;9.50;99.90;;;;;;4996434;28;20087;-89
2023/12/24 03:38:48;;;;;;;3.15;1.00;;;9.50;99.90;;;;;;4996935;28;20037;-90
2023/12/24 03:41:13;;;;;;;2.38;0.80;;;9.50;99.90;;;;;;5013065;28;20412;-89
2023/12/24 03:43:39;;;;;;;1.80;1.00;;;9.50;99.90;;;;;;4996095;28;20049;-90
2023/12/24 03:46:05;;;;;;;5.40;0.95;;;9.50;99.90;;;;;;5012813;28;20048;-89
2023/12/24 03:48:32;;;;;;;2.50;1.00;;;9.50;99.90;;;;;;5012779;28;20033;-90
2023/12/24 03:50:58;;;;;;;2.88;0.95;;;9.60;99.90;;;;;;4996197;28;20120;-89
2023/12/24 03:53:24;;;;;;;3.28;1.02;;;9.60;99.90;;;;;;5012548;28;20116;-90
2023/12/24 03:55:49;;;;;;;1.65;0.68;;;9.60;99.90;;;;;;5012765;28;20045;-90
2023/12/24 03:58:15;;;;;;;1.85;0.73;;;9.60;99.90;;;;;;5030239;28;20037;-90
2023/12/24 04:00:40;;;;;;;2.38;0.80;;;9.60;99.90;;;;;;5012678;28;20034;-90
2023/12/24 04:03:06;;;;;;;1.13;0.63;;;9.60;99.90;;;;;;4995777;28;20041;-90
2023/12/24 04:05:32;;;;;;;2.08;0.85;;;9.60;99.90;;;;;;5012186;28;20041;-90
2023/12/24 04:07:58;;;;;;;3.05;0.90;;;9.70;99.90;;;;;;5029919;28;20136;-90
2023/12/24 04:10:23;;;;;;;2.10;0.73;;;9.70;99.90;;;;;;5012490;28;20037;-90
2023/12/24 04:12:49;;;;;;;1.85;0.50;;;9.70;99.90;;;;;;4995944;28;20042;-90
2023/12/24 04:15:15;;;;;;;2.92;0.57;;;9.70;99.90;;;;;;5012547;28;20048;-90
2023/12/24 04:17:40;;;;;;;1.38;0.50;;;9.70;99.90;;;;;;5012399;28;20048;-90
2023/12/24 04:20:06;;;;;;;2.47;0.70;;;9.70;99.90;;;;;;5011999;28;20052;-90
2023/12/24 04:22:32;;;;;;;2.00;0.57;;;9.70;99.90;;;;;;5012300;28;20040;-90
2023/12/24 04:24:58;;;;;;;2.05;0.50;;;9.70;99.90;;;;;;4996022;28;20045;-90
2023/12/24 04:27:25;;;;;;;1.67;0.50;;;9.70;99.90;;;;;;4995623;28;20037;-90
2023/12/24 04:29:51;;;;;;;1.17;0.50;;;9.80;99.90;;;;;;5012583;28;20041;-91
2023/12/24 04:32:18;;;;;;;0.98;0.35;;;9.70;99.90;;;;;;5012112;28;20053;-90
2023/12/24 04:34:44;;;;;;;0.77;0.50;;;9.70;99.90;;;;;;4995193;28;20041;-91
2023/12/24 04:37:10;;;;;;;2.75;0.85;;;9.80;99.90;;;;;;4996004;28;20041;-90
2023/12/24 04:39:36;;;;;;;0.63;0.50;;;9.80;99.90;;;;;;4995779;28;20558;-90
2023/12/24 04:42:02;;;;;;;1.27;0.40;;;9.80;99.90;;;;;;4996240;28;20124;-90
2023/12/24 04:44:27;;;;;;;2.08;0.63;;;9.80;99.90;;;;;;4999292;28;20091;-90
2023/12/24 04:46:53;;;;;;;0.93;0.63;;;9.70;99.90;;;;;;4999637;28;20033;-90
2023/12/24 04:49:19;;;;;;;2.67;0.82;;;9.80;99.90;;;;;;5015907;28;20126;-90
2023/12/24 04:51:45;;;;;;;1.27;0.65;;;9.80;99.90;;;;;;5016082;28;20042;-91
2023/12/24 04:54:11;;;;;;;1.55;0.52;;;9.80;99.90;;;;;;4999118;28;20037;-91
2023/12/24 04:56:37;;;;;;;0.93;0.30;;;9.90;99.90;;;;;;5033666;28;20400;-90
2023/12/24 04:59:02;;;;;;;0.70;0.30;;;9.90;99.90;;;;;;5015814;28;20049;-90
2023/12/24 05:01:28;;;;;;;0.35;0.35;;;9.90;99.90;;;;;;5015905;28;20072;-90
2023/12/24 05:03:54;;;;;;;0.20;0.20;;;9.80;99.90;;;;;;4998780;28;20130;-90
2023/12/24 05:06:21;;;;;;;0.20;0.20;;;9.90;99.90;;;;;;4999554;28;20045;-90
2023/12/24 05:08:47;;;;;;;0.77;0.40;;;9.90;99.90;;;;;;4999329;28;20489;-89
2023/12/24 05:11:12;;;;;;;1.75;0.57;;;9.90;99.90;;;;;;5015679;28;20045;-90
2023/12/24 05:13:38;;;;;;;0.52;0.35;;;10.00;99.90;;;;;;5015259;28;20043;-90
2023/12/24 05:16:05;;;;;;;0.80;0.40;;;9.90;99.90;;;;;;4999049;28;20033;-90
2023/12/24 05:18:31;;;;;;;0.65;0.38;;;10.00;99.90;;;;;;5015332;28;20049;-89
2023/12/24 05:20:57;;;;;;;1.45;0.40;;;9.90;99.90;;;;;;4998895;28;20424;-90
2023/12/24 05:23:24;;;;;;;0.55;0.38;;;10.00;99.90;;;;;;4998739;28;20037;-90
2023/12/24 05:25:50;;;;;;;2.75;0.43;;;10.00;99.90;;;;;;4999286;28;20038;-90
2023/12/24 05:28:18;;;;;;;0.43;0.30;;;10.00;99.90;;;;;;4999022;28;20060;-90
2023/12/24 05:30:47;;;;;;;1.05;0.40;;;10.10;99.90;;;;;;5015319;28;20489;-90
2023/12/24 05:33:13;;;;;;;0.68;0.38;;;10.10;99.90;;;;;;5014645;28;20088;-90
2023/12/24 05:35:38;;;;;;;0.28;0.28;;;10.00;99.90;;;;;;4999061;28;20041;-90
2023/12/24 05:38:04;;;;;;;0.85;0.40;;;10.10;99.90;;;;;;4998802;28;20053;-90
2023/12/24 05:40:30;;;;;;;0.43;0.38;;;10.10;99.90;;;;;;5015172;28;20048;-90
2023/12/24 05:42:56;;;;;;;2.55;1.08;;;10.10;99.90;;;;;;5014623;28;20045;-90
2023/12/24 05:45:22;;;;;;;0.40;0.40;;;10.10;99.90;;;;;;5014947;28;20036;-90
2023/12/24 05:47:47;;;;;;;1.30;0.52;;;10.10;99.90;;;;;;4998596;28;20041;-90
2023/12/24 05:50:13;;;;;;;1.17;0.57;;;10.10;99.90;;;;;;4998437;28;20478;-90
2023/12/24 05:52:41;;;;;;;0.47;0.30;;;10.10;99.90;;;;;;4998131;28;20146;-91
2023/12/24 05:55:08;;;;;;;2.40;0.30;;;10.10;99.90;;;;;;5014464;28;20045;-90
2023/12/24 05:57:34;;;;;;;0.95;0.50;;;10.20;99.90;;;;;;5014844;28;20041;-91
2023/12/24 06:00:00;;;;;;;0.55;0.22;;;10.20;99.90;;;;;;4998265;28;20053;-90
2023/12/24 06:02:26;;;;;;;0.90;0.43;;;10.20;99.90;;;;;;4998215;28;20047;-90
2023/12/24 06:04:51;;;;;;;0.15;0.13;;;10.20;99.90;;;;;;4998092;28;20100;-90
2023/12/24 06:07:17;;;;;;;0.40;0.30;;;10.20;99.90;;;;;;5014704;28;20449;-90
2023/12/24 06:09:43;;;;;;;1.58;0.50;;;10.20;99.90;;;;;;4998278;28;20091;-90
2023/12/24 06:12:08;;;;;;;0.38;0.32;;;10.20;99.90;;;;;;4998235;28;20041;-90
2023/12/24 06:14:34;;;;;;;0.88;0.50;;;10.30;99.90;;;;;;5013910;28;20559;-90
2023/12/24 06:17:00;;;;;;;2.00;0.70;;;10.30;99.90;;;;;;5013848;28;20091;-90
2023/12/24 06:19:26;;;;;;;1.85;0.88;;;10.20;99.90;;;;;;4997412;28;20077;-90
2023/12/24 06:21:52;;;;;;;2.75;0.88;;;10.30;99.90;;;;;;4998126;28;20079;-91
2023/12/24 06:24:20;;;;;;;2.72;1.00;;;10.20;99.90;;;;;;4997510;28;20523;-90
2023/12/24 06:26:47;;;;;;;1.85;0.80;;;10.30;99.90;;;;;;5014217;28;20096;-90
2023/12/24 06:29:13;;;;;;;1.40;0.60;;;10.40;99.90;;;;;;4997428;28;20128;-90
2023/12/24 06:31:39;;;;;;;1.20;0.50;;;10.30;99.90;;;;;;4997844;28;20124;-90
2023/12/24 06:34:04;;;;;;;1.35;0.63;;;10.30;99.90;;;;;;4997552;28;20122;-90
2023/12/24 06:36:30;;;;;;;1.92;1.02;;;10.30;99.90;;;;;;5014191;28;20072;-90
2023/12/24 06:38:56;;;;;;;1.25;0.50;;;10.40;99.90;;;;;;5013985;28;20045;-90
2023/12/24 06:41:22;;;;;;;4.60;1.10;;;10.40;99.90;;;;;;4997757;28;20041;-90
2023/12/24 06:43:48;;;;;;;2.08;0.70;;;10.40;99.90;;;;;;4997130;28;20065;-89
2023/12/24 06:46:14;;;;;;;4.07;1.10;;;10.40;99.90;;;;;;5031751;28;20405;-90
2023/12/24 06:48:40;;;;;;;3.95;1.63;;;10.50;99.90;;;;;;4997956;28;20192;-90
2023/12/24 06:51:05;;;;;;;2.78;0.80;;;10.40;99.90;;;;;;5013693;28;20144;-90
2023/12/24 06:53:31;;;;;;;2.65;1.15;;;10.50;99.90;;;;;;5013294;28;20055;-90
2023/12/24 06:55:57;;;;;;;5.50;2.65;;;10.60;99.90;;;;;;4997288;28;20095;-90
2023/12/24 06:58:22;;;;;;;2.95;1.15;;;10.60;99.90;;;;;;5013814;28;20040;-90
2023/12/24 07:00:48;;;;;;;3.35;1.55;;;10.50;99.90;;;;;;4997306;28;20080;-90
2023/12/24 07:03:14;;;;;;;7.80;2.22;;;10.60;99.90;;;;;;4996679;28;20102;-89
2023/12/24 07:05:41;;;;;;;3.50;1.50;;;10.60;99.90;;;;;;5012391;28;20036;-90
2023/12/24 07:08:07;;;;;;;3.60;1.40;;;10.60;99.90;;;;;;4996862;28;20134;-89
2023/12/24 07:10:33;;;;;;;3.85;1.67;;;10.60;99.90;;;;;;4997150;28;20041;-90
2023/12/24 07:12:59;;;;;;;3.50;1.33;;;10.60;99.90;;;;;;4996766;28;20138;-90
2023/12/24 07:15:25;;;;;;;4.00;1.63;;;10.60;99.90;;;;;;5013755;28;20504;-90
2023/12/24 07:17:50;;;;;;;3.70;1.35;;;10.70;99.90;;;;;;4997305;28;20124;-90
2023/12/24 07:20:16;;;;;;;6.93;2.38;;;10.70;99.90;;;;;;4996809;28;20509;-90
2023/12/24 07:22:42;;;;;;;6.07;1.60;;;10.80;99.90;;;;;;4996730;28;20038;-90
2023/12/24 07:25:09;;;;;;;4.00;1.65;;;10.80;99.90;;;;;;4996459;28;20500;-89
2023/12/24 07:27:35;;;;;;;5.70;1.30;;;10.80;99.90;;;;;;4996839;28;20048;-90
2023/12/24 07:30:01;;;;;;;3.38;1.02;;;10.80;99.90;;;;;;5013235;28;20041;-90
2023/12/24 07:32:26;;;;;;;10.60;2.10;;;10.80;99.90;;;;;;4996679;28;20100;-90
2023/12/24 07:34:52;;;;;;;3.25;1.33;;;10.80;99.90;;;;;;5030476;28;20558;-90
2023/12/24 07:37:18;;;;;;;6.32;1.45;;;10.80;99.90;;;;;;5013014;28;20045;-89
2023/12/24 07:39:44;;;;;;;4.25;0.90;;;10.80;99.90;;;;;;4996938;28;20404;-90
2023/12/24 07:42:09;;;;;;;3.72;1.58;;;10.90;99.90;;;;;;4995989;28;20514;-90
2023/12/24 07:44:35;;;;;;;3.40;1.25;;;10.90;99.90;;;;;;4996070;28;20041;-90
2023/12/24 07:47:02;;;;;;;8.30;2.40;;;10.90;99.90;;;;;;4996221;28;20034;-90
2023/12/24 07:49:27;;;;;;;7.60;1.83;;;10.90;99.90;;;;;;5012744;28;20037;-90
2023/12/24 07:51:53;;;;;;;3.95;1.67;;;10.90;99.90;;;;;;5012767;28;20033;-89
2023/12/24 07:54:19;;;;;;;5.63;1.45;;;10.90;99.90;;;;;;4996111;28;20041;-90
2023/12/24 07:56:44;;;;;;;5.28;1.58;;;10.90;99.90;;;;;;4996144;28;20116;-90
2023/12/24 07:59:10;;;;;;;4.40;1.52;;;11.00;99.90;;;;;;5013128;28;20033;-90
2023/12/24 08:01:39;;;;;;;4.18;1.83;;;10.90;99.90;;;;;;4996209;28;20038;-90
2023/12/24 08:04:05;;;;;;;3.65;1.05;;;10.90;99.90;;;;;;4995085;28;20044;-89
2023/12/24 08:06:31;;;;;;;3.08;1.42;;;11.00;99.90;;;;;;4996428;28;20045;-90
2023/12/24 08:08:57;;;;;;;6.30;2.17;;;11.00;99.90;;;;;;4995979;28;20679;-90
2023/12/24 08:11:23;;;;;;;6.78;2.00;;;11.00;99.90;;;;;;4995834;28;20122;-90
2023/12/24 08:13:49;;;;;;;6.65;1.40;;;11.00;99.90;;;;;;4996155;28;20042;-89
2023/12/24 08:16:15;;;;;;;6.82;1.90;;;11.00;99.90;;;;;;4996186;28;20044;-88
2023/12/24 08:18:40;;;;;;;5.18;1.92;;;11.10;99.90;;;;;;5013904;28;20537;-90
2023/12/24 08:21:10;;;;;;;4.25;1.38;;;11.10;99.90;;;;;;4999225;28;20048;-89
2023/12/24 08:23:39;;;;;;;10.65;2.40;;;11.00;99.90;;;;;;4998521;28;20393;-89
2023/12/24 08:26:05;;;;;;;5.88;1.40;;;11.10;99.90;;;;;;4996381;28;20037;-89
2023/12/24 08:28:31;;;;;;;3.83;0.88;;;11.10;99.90;;;;;;5012129;28;20064;-90
2023/12/24 08:30:57;;;;;;;2.38;0.77;;;11.10;99.90;;;;;;4997195;28;20045;-90
2023/12/24 08:33:22;;;;;;;6.95;1.63;;;11.10;99.90;;;;;;4996162;28;20118;-90
2023/12/24 08:35:48;;;;;;;7.00;1.80;;;11.10;99.90;;;;;;4995819;28;20715;-89
2023/12/24 08:38:14;;;;;;;4.50;1.55;;;11.10;99.90;;;;;;5011875;28;20086;-90
2023/12/24 08:40:40;;;;;;;3.70;1.10;;;11.10;99.90;;;;;;4994707;28;20037;-91
2023/12/24 08:43:05;;;;;;;7.30;1.65;;;11.20;99.90;;;;;;4994187;28;20060;-90
2023/12/24 08:45:31;;;;;;;5.75;2.15;;;11.10;99.90;;;;;;5012070;28;20117;-90
2023/12/24 08:47:57;;;;;;;3.75;1.00;;;11.10;99.90;;;;;;4995793;28;20175;-90
2023/12/24 08:50:23;;;;;;;5.10;1.48;;;11.20;99.90;;;;;;4996104;28;20517;-91
2023/12/24 08:52:49;;;;;;;6.57;1.48;;;11.20;99.90;;;;;;5011760;28;20105;-90
2023/12/24 08:55:15;;;;;;;6.03;1.42;;;11.20;99.90;;;;;;4995139;28;20045;-91
2023/12/24 08:57:41;;;;;;;8.15;1.70;;;11.20;99.90;;;;;;4996141;28;20048;-91
2023/12/24 09:00:11;;;;;;;2.60;1.08;;;11.20;99.90;;;;;;4995072;28;20046;-91
2023/12/24 09:02:40;;;;;;;5.90;1.27;;;11.20;99.90;;;;;;5010957;28;20416;-91
2023/12/24 09:05:09;;;;;;;7.70;1.50;;;11.20;99.90;;;;;;4994436;28;20416;-91
2023/12/24 09:07:36;;;;;;;8.50;1.85;;;11.20;99.90;;;;;;5008881;28;20400;-90
2023/12/24 09:10:02;;;;;;;6.82;1.85;;;11.20;99.90;;;;;;5011365;28;20037;-91
2023/12/24 09:12:28;;;;;;;5.75;1.52;;;11.20;99.90;;;;;;5011113;28;20038;-89
2023/12/24 09:14:54;;;;;;;5.78;1.88;;;11.30;99.90;;;;;;5010689;28;20041;-90
2023/12/24 09:17:19;;;;;;;5.25;1.20;;;11.30;99.90;;;;;;4994913;28;20049;-90
2023/12/24 09:19:45;;;;;;;3.00;0.95;;;11.30;99.90;;;;;;4995176;28;20033;-89
2023/12/24 09:22:11;;;;;;;5.18;1.20;;;11.30;99.90;;;;;;4993926;28;20091;-90
2023/12/24 09:24:36;;;;;;;6.50;1.85;;;11.30;99.90;;;;;;4994731;28;20395;-90
2023/12/24 09:27:02;;;;;;;5.47;1.33;;;11.40;99.90;;;;;;4994577;28;20120;-90
2023/12/24 09:29:28;;;;;;;4.10;1.05;;;11.30;99.90;;;;;;4996372;28;20042;-90
2023/12/24 09:31:54;;;;;;;2.90;1.02;;;11.30;99.90;;;;;;4998229;28;20033;-90
2023/12/24 09:34:22;;;;;;;4.63;1.05;;;11.40;99.90;;;;;;5032189;28;20657;-90
2023/12/24 09:36:48;;;;;;;2.25;0.82;;;11.40;99.90;;;;;;5014733;28;20057;-91
2023/12/24 09:39:14;;;;;;;2.63;0.80;;;11.40;99.90;;;;;;5015146;28;20057;-90
2023/12/24 09:41:39;;;;;;;2.70;1.20;;;11.40;99.90;;;;;;5015044;28;20408;-90
2023/12/24 09:44:08;;;;;;;4.43;1.20;;;11.40;99.90;;;;;;5031541;28;20033;-91
2023/12/24 09:46:34;;;;;;;2.72;0.90;;;11.50;99.90;;;;;;4994826;28;20037;-91
2023/12/24 09:49:00;;;;;;;7.50;1.50;;;11.40;99.90;;;;;;4996728;28;20048;-90
2023/12/24 09:51:27;;;;;;;4.60;1.13;;;11.40;99.90;;;;;;5030886;28;20037;-90
2023/12/24 09:53:56;;;;;;;5.43;1.60;;;11.50;99.90;;;;;;5012362;28;20045;-90
2023/12/24 09:56:23;;;;;;;4.28;1.38;;;11.40;99.90;;;;;;4995759;28;20044;-89
2023/12/24 09:58:48;;;;;;;3.90;1.35;;;11.50;99.90;;;;;;4996259;28;20497;-90
2023/12/24 10:01:14;;;;;;;3.80;1.05;;;11.50;99.90;;;;;;5012693;28;20037;-89
2023/12/24 10:03:40;;;;;;;4.82;1.25;;;11.60;99.90;;;;;;5010414;28;20033;-89
2023/12/24 10:06:09;;;;;;;4.18;1.38;;;11.50;99.90;;;;;;5030431;28;20567;-88
2023/12/24 10:08:35;;;;;;;3.85;1.15;;;11.60;99.90;;;;;;5029816;28;20519;-89
2023/12/24 10:11:23;;;;;;;2.53;0.95;;;11.60;99.90;;;;;;4995967;28;20045;-90
2023/12/24 10:13:59;;;;;;;4.07;1.73;;;11.60;99.90;;;;;;4995792;28;20029;-89
2023/12/24 10:16:26;;;;;;;3.30;1.15;;;11.70;99.90;;;;;;4995933;28;20091;-89
2023/12/24 10:18:53;;;;;;;6.80;1.52;;;11.70;99.90;;;;;;4997408;28;20036;-89
2023/12/24 10:21:20;;;;;;;8.25;1.73;;;11.70;99.90;;;;;;4991170;28;20061;-90
2023/12/24 10:23:46;;;;;;;6.10;1.20;;;11.70;99.90;;;;;;4996585;28;20524;-89
2023/12/24 10:26:12;;;;;;;3.60;1.48;;;11.70;99.90;;;;;;4996747;28;20057;-89
2023/12/24 10:28:50;;;;;;;12.75;1.80;;;11.80;99.90;;;;;;5013181;28;20051;-90
2023/12/24 10:31:16;;;;;;;7.15;1.48;;;11.70;99.90;;;;;;5014308;28;20041;-89
2023/12/24 10:33:42;;;;;;;5.68;2.03;;;11.70;99.90;;;;;;4997446;28;20063;-89
2023/12/24 10:36:08;;;;;;;4.57;1.00;;;11.70;99.90;;;;;;4997629;28;20037;-90
2023/12/24 10:38:35;;;;;;;5.85;1.05;;;11.80;99.90;;;;;;4997674;28;20041;-90
2023/12/24 10:41:02;;;;;;;6.45;1.17;;;11.70;99.90;;;;;;4997722;28;20110;-89
2023/12/24 10:43:28;;;;;;;7.00;1.40;;;11.70;99.90;;;;;;4997128;28;20540;-89
2023/12/24 10:45:53;;;;;;;5.35;1.15;;;11.80;99.90;;;;;;5013782;28;20068;-89
2023/12/24 10:48:19;;;;;;;5.50;1.50;;;11.80;99.90;;;;;;4997792;28;20034;-89
2023/12/24 10:50:45;;;;;;;5.07;1.27;;;11.80;99.90;;;;;;5013759;28;20493;-89
2023/12/24 10:53:13;;;;;;;3.95;1.17;;;11.80;99.90;;;;;;5013586;28;20500;-89
2023/12/24 10:55:41;;;;;;;9.73;3.70;;;11.80;99.90;;;;;;5013637;28;20041;-89
2023/12/24 10:58:15;;;;;;;4.28;1.05;;;11.90;99.90;;;;;;4997009;28;20038;-89
2023/12/24 11:00:42;;;;;;;3.58;0.95;;;11.90;99.90;;;;;;5013381;28;20041;-89
2023/12/24 11:03:08;;;;;;;2.78;0.93;;;12.00;99.90;;;;;;5013425;28;20042;-89
2023/12/24 11:05:40;;;;;;;2.40;0.90;;;12.00;99.90;;;;;;5013201;28;20034;-90
2023/12/24 11:08:26;;;;;;;3.35;1.15;;;12.00;99.90;;;;;;4997078;28;20038;-90
2023/12/24 11:10:56;;;;;;;2.17;0.90;;;12.10;99.90;;;;;;4996290;28;20041;-90
2023/12/24 11:13:34;;;;;;;6.05;1.58;;;12.10;99.90;;;;;;4996083;28;20451;-90
2023/12/24 11:16:01;;;;;;;1.90;0.75;;;12.20;99.90;;;;;;4996904;28;20040;-90
2023/12/24 11:18:46;;;;;;;2.80;1.05;;;12.20;99.90;;;;;;4997148;28;20034;-90
2023/12/24 11:21:19;;;;;;;7.68;1.60;;;12.20;99.90;;;;;;5013421;28;20044;-90
2023/12/24 11:24:04;;;;;;;;;;;12.20;99.90;;;;;;4996781;28;20156;-90
2023/12/24 11:26:31;;;;;;;5.45;1.13;;;12.20;99.90;;;;;;5013223;28;20008;-89
2023/12/24 11:28:57;;;;;;;3.95;1.65;;;12.20;99.90;;;;;;5030951;28;20041;-90
2023/12/24 11:31:25;;;;;;;5.70;2.30;;;12.20;99.90;;;;;;4996170;28;20069;-90
2023/12/24 11:33:51;;;;;;;7.68;1.52;;;12.20;99.90;;;;;;4996764;28;20045;-90
2023/12/24 11:36:18;;;;;;;2.67;0.80;;;12.20;99.90;;;;;;4996625;28;20378;-90
2023/12/24 11:38:45;;;;;;;4.38;1.23;;;12.20;99.90;;;;;;4996736;28;20420;-90
2023/12/24 11:41:19;;;;;;;4.10;1.42;;;12.20;99.90;;;;;;4996435;28;20574;-90
2023/12/24 11:43:59;;;;;;;5.93;1.75;;;12.20;99.90;;;;;;5012286;28;20492;-90
2023/12/24 11:46:29;;;;;;;9.73;2.85;;;12.20;99.90;;;;;;5012824;28;20040;-91
2023/12/24 11:49:00;;;;;;;7.22;1.65;;;12.20;99.90;;;;;;4996192;28;20037;-90
2023/12/24 11:51:26;;;;;;;4.07;0.93;;;12.20;99.90;;;;;;4996470;28;20041;-91
2023/12/24 11:54:06;;;;;;;19.50;5.57;;;12.20;99.90;;;;;;5029791;28;20578;-90
2023/12/24 11:56:32;;;;;;;6.20;2.15;;;12.30;99.90;;;;;;4996221;28;20041;-90
2023/12/24 11:58:59;;;;;;;5.57;1.45;;;12.30;99.90;;;;;;4996146;28;20052;-91
2023/12/24 12:01:28;;;;;;;17.60;5.15;;;12.30;99.90;;;;;;4996426;28;20097;-91
2023/12/24 12:03:57;;;;;;;3.53;1.20;;;12.30;99.90;;;;;;4995848;28;20045;-90
2023/12/24 12:06:43;;;;;;;5.63;1.45;;;12.30;99.90;;;;;;4996050;28;20033;-90
2023/12/24 12:09:10;;;;;;;4.90;1.50;;;12.30;99.90;;;;;;4995711;28;20046;-91
2023/12/24 12:11:36;;;;;;;5.60;1.40;;;12.30;99.90;;;;;;5012586;28;20049;-90
2023/12/24 12:14:01;;;;;;;6.47;2.08;;;12.30;99.90;;;;;;4995553;28;20045;-91
2023/12/24 12:16:28;;;;;;;6.72;1.58;;;12.30;99.90;;;;;;4995897;28;20412;-90
2023/12/24 12:18:54;;;;;;;7.63;2.10;;;12.30;99.90;;;;;;4995784;28;20049;-90
2023/12/24 12:21:19;;;;;;;4.95;1.50;;;12.30;99.90;;;;;;5011918;28;20041;-91
2023/12/24 12:23:45;;;;;;;3.78;1.27;;;12.30;99.90;;;;;;4995760;28;20072;-90
2023/12/24 12:26:11;;;;;;;5.60;1.15;;;12.30;99.90;;;;;;5012257;28;20041;-90
2023/12/24 12:28:37;;;;;;;5.00;1.05;;;12.30;99.90;;;;;;5012433;28;20405;-90
2023/12/24 12:31:03;;;;;;;6.38;1.58;;;12.40;99.90;;;;;;4995707;28;20068;-90
2023/12/24 12:33:28;;;;;;;8.32;1.63;;;12.30;99.90;;;;;;5011782;28;20041;-90
2023/12/24 12:35:55;;;;;;;8.63;1.92;;;12.40;99.90;;;;;;4995419;28;20046;-90
2023/12/24 12:38:22;;;;;;;3.33;1.30;;;12.30;99.90;;;;;;4996149;28;20631;-90
2023/12/24 12:40:49;;;;;;;8.57;1.55;;;12.40;99.90;;;;;;4996181;28;20437;-90
2023/12/24 12:43:20;;;;;;;7.40;1.20;;;12.30;99.90;;;;;;4995252;28;20038;-90
2023/12/24 12:45:46;;;;;;;3.13;0.90;;;12.30;99.90;;;;;;4995506;28;20046;-91
2023/12/24 12:48:11;;;;;;;2.85;1.05;;;12.30;99.90;;;;;;4992366;28;20034;-90